Latest Weather Observations for Mardie

IDW60801

Issued at 9:05 pm WST Tuesday 21 October 2014 (issued every 30 minutes, with the page automatically refreshed every 10 minutes)

About weather observations | Map of weather stations | Latest weather observations for WA | Other Formats
Station Details ID: 005008 Name: MARDIE Lat: -21.19 Lon: 115.98 Height: 11.0 m
Data from the previous 72 hours. | See also: Recent months at Mardie
Date/Time
WST
Temp
°C
App
Temp
°C
Dew
Point
Rel
Hum
%
Delta-T
°C
Wind Press
QNH
hPa
Press
MSL
hPa
Rain
since 9 am
mm
Dir
 
Spd
km/h
Gust
km/h
Spd
kts
Gust
kts
21/09:00pm 24.1 25.5 17.8 68 3.9 WSW 7 9 4 5 1016.3 1016.3 0.0
21/08:30pm 23.9 25.1 17.4 67 4.0 WSW 7 9 4 5 1015.9 1015.9 0.0
21/08:00pm 24.1 25.3 17.4 66 4.2 WSW 7 9 4 5 1015.8 1015.8 0.0
21/07:30pm 24.7 25.5 17.2 63 4.7 W 9 13 5 7 1015.6 1015.6 0.0
21/07:00pm 25.2 24.9 16.4 58 5.4 W 13 17 7 9 1015.5 1015.5 0.0
21/06:30pm 25.8 25.5 16.4 56 5.8 W 13 19 7 10 1015.2 1015.2 0.0
21/06:00pm 27.1 25.3 15.5 49 7.1 W 19 26 10 14 1014.9 1014.9 0.0
21/05:30pm 28.1 24.9 13.2 39 8.8 W 22 30 12 16 1014.6 1014.6 0.0
21/05:00pm 29.3 24.6 9.4 29 11.1 WNW 24 32 13 17 1014.3 1014.3 0.0
21/04:30pm 29.5 25.7 12.4 35 10.0 WNW 24 32 13 17 1014.2 1014.2 0.0
21/04:00pm 30.3 26.4 10.8 30 11.2 WNW 22 28 12 15 1014.1 1014.1 0.0
21/03:30pm 29.9 26.3 13.2 36 9.9 WNW 24 30 13 16 1014.0 1014.0 0.0
21/03:00pm 30.4 26.7 12.8 34 10.4 WNW 24 33 13 18 1014.2 1014.2 0.0
21/02:30pm 31.1 27.1 10.4 28 11.8 WNW 22 30 12 16 1014.4 1014.4 0.0
21/02:00pm 31.1 27.3 11.0 29 11.6 WNW 22 28 12 15 1014.7 1014.7 0.0
21/01:30pm 30.9 27.7 11.8 31 11.2 WNW 20 28 11 15 1014.9 1014.9 0.0
21/01:00pm 31.4 28.1 11.7 29 11.5 WNW 20 30 11 16 1015.2 1015.2 0.0
21/12:30pm 31.5 28.4 10.2 27 12.2 WNW 17 24 9 13 1015.5 1015.5 0.0
21/12:00pm 31.4 28.8 10.7 28 11.9 WNW 15 20 8 11 1015.8 1015.8 0.0
21/11:30am 31.8 30.4 11.0 28 12.0 NW 9 17 5 9 1015.9 1015.9 0.0
21/11:00am 30.6 29.0 11.5 30 11.1 WNW 11 17 6 9 1016.2 1016.2 0.0
21/10:30am 30.4 28.9 10.4 29 11.4 WNW 9 17 5 9 1016.5 1016.5 0.0
21/10:00am 30.3 29.5 9.8 28 11.6 WNW 4 13 2 7 1017.0 1016.9 0.0
21/09:30am 28.1 27.1 10.3 33 10.0 W 6 9 3 5 1017.0 1016.9 0.0
21/09:00am 26.3 25.5 11.6 40 8.4 SSW 7 13 4 7 1017.0 1016.9 0.0
21/08:30am 24.9 24.0 12.5 46 7.1 S 9 13 5 7 1016.8 1016.8 0.0
21/08:00am 22.4 21.5 12.6 54 5.6 SSW 9 13 5 7 1017.0 1016.9 0.0
21/07:30am 21.1 20.5 13.5 62 4.4 SSW 9 13 5 7 1017.0 1016.9 0.0
21/07:00am 19.8 18.4 13.3 66 3.7 SSW 13 17 7 9 1016.7 1016.7 0.0
21/06:30am 18.7 18.2 13.8 73 2.8 SW 9 11 5 6 1016.5 1016.5 0.0
21/06:00am 17.5 16.8 13.2 76 2.4 SW 9 13 5 7 1016.1 1016.1 0.0
21/05:30am 17.6 16.9 13.1 75 2.5 SW 9 11 5 6 1015.8 1015.8 0.0
21/05:00am 18.0 17.3 13.3 74 2.6 WSW 9 11 5 6 1015.8 1015.8 0.0
21/04:30am 18.4 17.9 13.9 75 2.6 WSW 9 13 5 7 1015.6 1015.6 0.0
21/04:00am 18.6 17.8 14.1 75 2.6 WSW 11 15 6 8 1015.5 1015.5 0.0
21/03:30am 18.8 18.2 14.5 76 2.5 WSW 11 13 6 7 1015.5 1015.5 0.0
21/03:00am 19.3 19.2 15.0 76 2.5 W 9 13 5 7 1015.4 1015.4 0.0
21/02:30am 19.8 19.8 15.2 75 2.7 WSW 9 13 5 7 1015.4 1015.4 0.0
21/02:00am 20.3 20.3 15.3 73 3.0 W 9 13 5 7 1015.3 1015.3 0.0
21/01:30am 21.0 20.6 15.3 70 3.4 WSW 11 15 6 8 1015.4 1015.4 0.0
21/01:00am 21.6 21.8 16.8 74 2.9 WSW 11 13 6 7 1015.6 1015.6 0.0
21/12:30am 22.0 22.6 17.8 77 2.6 WSW 11 17 6 9 1015.6 1015.6 0.0
21/12:00am 22.1 22.7 17.7 76 2.7 W 11 17 6 9 1015.7 1015.7 0.0
 
Date/Time
WST
Temp
°C
App
Temp
°C
Dew
Point
Rel
Hum
%
Delta-T
°C
Wind Press
QNH
hPa
Press
MSL
hPa
Rain
since 9 am
mm
Dir
 
Spd
km/h
Gust
km/h
Spd
kts
Gust
kts
20/11:30pm 22.2 23.1 17.6 75 2.8 W 9 13 5 7 1015.9 1015.9 0.0
20/11:00pm 22.5 23.1 17.8 75 2.9 W 11 15 6 8 1016.3 1016.3 0.0
20/10:30pm 22.7 22.8 18.3 76 2.8 W 15 20 8 11 1016.5 1016.5 0.0
20/10:00pm 22.7 22.9 18.5 77 2.6 W 15 20 8 11 1016.5 1016.5 0.0
20/09:30pm 22.8 22.9 18.3 76 2.8 W 15 22 8 12 1016.5 1016.5 0.0
20/09:00pm 23.0 22.9 17.9 73 3.2 W 15 20 8 11 1016.4 1016.4 0.0
20/08:30pm 23.1 23.4 17.8 72 3.3 W 13 19 7 10 1016.1 1016.1 0.0
20/08:00pm 23.4 22.8 17.6 70 3.6 W 17 24 9 13 1015.8 1015.8 0.0
20/07:30pm 23.6 23.1 16.9 66 4.1 WNW 15 22 8 12 1015.5 1015.5 0.0
20/07:00pm 24.0 22.7 15.8 60 5.0 WNW 17 24 9 13 1015.0 1015.0 0.0
20/06:30pm 24.5 22.6 14.3 53 6.0 WNW 17 24 9 13 1014.6 1014.6 0.0
20/06:00pm 25.1 22.2 13.9 49 6.6 W 22 30 12 16 1014.3 1014.3 0.0
20/05:30pm 25.6 22.4 15.3 53 6.2 WNW 26 33 14 18 1013.9 1013.9 0.0
20/05:00pm 26.4 22.7 15.1 49 6.8 WNW 28 35 15 19 1013.6 1013.6 0.0
20/04:30pm 27.0 23.4 14.1 45 7.7 W 26 35 14 19 1013.5 1013.5 0.0
20/04:00pm 27.7 23.5 12.5 39 8.9 WNW 26 33 14 18 1013.5 1013.5 0.0
20/03:30pm 28.7 24.6 12.6 37 9.4 WNW 26 33 14 18 1013.5 1013.5 0.0
20/03:00pm 29.2 24.7 11.3 33 10.3 WNW 26 33 14 18 1013.4 1013.4 0.0
20/02:30pm 30.3 26.4 10.8 30 11.2 WNW 22 30 12 16 1013.4 1013.4 0.0
20/02:00pm 29.3 24.9 10.4 31 10.7 WNW 24 32 13 17 1013.5 1013.5 0.0
20/01:30pm 29.4 25.8 10.5 31 10.7 WNW 20 28 11 15 1013.8 1013.8 0.0
20/01:00pm 29.0 25.2 11.1 33 10.3 WNW 22 32 12 17 1014.1 1014.1 0.0
20/12:30pm 29.8 26.3 10.9 31 10.8 WNW 20 30 11 16 1014.5 1014.5 0.0
20/12:00pm 29.8 26.4 10.4 30 11.0 W 19 30 10 16 1014.6 1014.6 0.0
20/11:30am 30.3 27.4 4.9 20 13.2 W 9 19 5 10 1014.9 1014.9 0.0
20/11:00am 29.5 26.0 5.6 22 12.5 SSW 13 22 7 12 1015.4 1015.4 0.0
20/10:30am 28.2 26.2 6.9 26 11.3 S 7 15 4 8 1015.9 1015.9 0.0
20/10:00am 27.6 24.4 6.9 27 11.0 S 13 20 7 11 1016.3 1016.3 0.0
20/09:30am 26.7 23.6 7.2 29 10.3 S 13 24 7 13 1016.7 1016.7 0.0
20/09:00am 25.1 22.4 11.6 42 7.6 SSW 17 26 9 14 1017.0 1016.9 0.0
20/08:30am 24.3 21.3 12.6 48 6.7 S 20 26 11 14 1016.8 1016.8 0.0
20/08:00am 22.5 19.6 13.0 55 5.4 S 20 30 11 16 1016.7 1016.7 0.0
20/07:30am 21.2 18.4 13.1 60 4.6 SSW 20 24 11 13 1016.7 1016.7 0.0
20/07:00am 19.4 17.6 13.3 68 3.5 SSW 15 20 8 11 1016.6 1016.6 0.0
20/06:30am 17.2 16.5 12.1 72 2.8 SW 7 11 4 6 1016.4 1016.4 0.0
20/06:00am 15.5 14.4 10.7 73 2.5 SW 7 9 4 5 1016.0 1016.0 0.0
20/05:30am 15.9 14.5 10.9 72 2.7 SW 9 11 5 6 1015.6 1015.6 0.0
20/05:00am 16.1 15.0 10.8 71 2.8 SW 7 9 4 5 1015.3 1015.3 0.0
20/04:30am 16.4 15.3 10.7 69 3.0 SW 7 11 4 6 1015.0 1015.0 0.0
20/04:00am 16.5 15.4 10.6 68 3.1 SW 7 11 4 6 1014.7 1014.7 0.0
20/03:30am 17.2 15.8 10.8 66 3.4 SW 9 11 5 6 1014.6 1014.6 0.0
20/03:00am 17.9 16.1 11.0 64 3.7 SW 11 15 6 8 1014.6 1014.6 0.0
20/02:30am 18.6 16.9 11.2 62 4.0 SW 11 15 6 8 1014.6 1014.6 0.0
20/02:00am 19.0 16.9 11.1 60 4.3 WSW 13 15 7 8 1014.7 1014.7 0.0
20/01:30am 19.2 17.4 10.7 58 4.6 SW 11 15 6 8 1014.8 1014.8 0.0
20/01:00am 19.1 16.8 9.0 52 5.3 SW 11 13 6 7 1014.8 1014.8 0.0
20/12:30am 19.9 17.5 8.6 48 5.9 SW 11 15 6 8 1015.0 1015.0 0.0
20/12:00am 21.0 17.8 8.6 45 6.5 SW 15 20 8 11 1015.1 1015.1 0.0
 
Date/Time
WST
Temp
°C
App
Temp
°C
Dew
Point
Rel
Hum
%
Delta-T
°C
Wind Press
QNH
hPa
Press
MSL
hPa
Rain
since 9 am
mm
Dir
 
Spd
km/h
Gust
km/h
Spd
kts
Gust
kts
19/11:30pm 21.7 18.2 8.6 43 6.9 WSW 17 22 9 12 1015.2 1015.2 0.0
19/11:00pm 22.5 18.6 9.6 44 7.0 WSW 20 30 11 16 1015.2 1015.2 0.0
19/10:30pm 22.4 21.3 15.3 64 4.2 WSW 15 22 8 12 1015.2 1015.2 0.0
19/10:00pm 22.6 20.7 15.2 63 4.4 W 19 24 10 13 1015.0 1015.0 0.0
19/09:30pm 22.8 20.6 14.4 59 4.9 W 19 26 10 14 1014.9 1014.9 0.0
19/09:00pm 23.0 19.9 13.5 55 5.5 W 22 33 12 18 1014.7 1014.7 0.0
19/08:30pm 23.4 20.4 12.7 51 6.1 W 20 26 11 14 1014.3 1014.3 0.0
19/08:00pm 23.7 20.5 11.1 45 7.0 W 19 26 10 14 1014.2 1014.2 0.0
19/07:30pm 23.9 19.2 10.6 43 7.4 W 26 37 14 20 1013.8 1013.8 0.0
19/07:00pm 24.1 19.9 12.4 48 6.7 W 26 37 14 20 1013.5 1013.5 0.0
19/06:30pm 24.3 20.2 12.6 48 6.7 W 26 37 14 20 1013.2 1013.2 0.0
19/06:00pm 24.9 19.9 13.5 49 6.7 W 32 41 17 22 1012.8 1012.8 0.0
19/05:30pm 25.9 20.3 12.0 42 8.0 W 33 44 18 24 1012.6 1012.6 0.0
19/05:00pm 26.9 21.4 11.8 39 8.7 W 32 41 17 22 1012.4 1012.4 0.0
19/04:30pm 27.4 22.8 11.0 36 9.3 W 26 37 14 20 1012.4 1012.4 0.0
19/04:00pm 27.4 22.9 13.7 43 8.1 W 30 43 16 23 1012.4 1012.4 0.0
19/03:30pm 26.7 22.2 13.8 45 7.6 W 30 41 16 22 1012.6 1012.6 0.0
19/03:00pm 28.4 22.5 7.6 27 11.2 W 28 37 15 20 1012.6 1012.6 0.0
19/02:30pm 29.6 22.6 -0.7 14 14.3 WNW 26 35 14 19 1012.6 1012.6 0.0
19/02:00pm 29.1 24.0 10.7 32 10.5 W 28 39 15 21 1012.9 1012.9 0.0
19/01:30pm 29.6 24.0 8.6 27 11.6 WNW 28 37 15 20 1013.0 1013.0 0.0
19/01:00pm 30.1 25.5 11.1 31 10.9 W 26 39 14 21 1013.4 1013.4 0.0
19/12:30pm 28.9 25.2 11.5 34 10.0 WNW 22 35 12 19 1013.8 1013.8 0.0
19/12:00pm 29.0 24.7 10.6 32 10.5 W 24 37 13 20 1014.1 1014.1 0.0
19/11:30am 29.1 25.6 10.3 31 10.6 WSW 19 32 10 17 1014.4 1014.4 0.0
19/11:00am 27.6 23.7 9.4 32 10.1 W 20 32 11 17 1014.8 1014.8 0.0
19/10:30am 28.2 25.1 10.4 33 10.0 SW 17 32 9 17 1015.1 1015.1 0.0
19/10:00am 26.9 23.7 11.4 38 8.8 SW 19 39 10 21 1015.3 1015.3 0.0
19/09:30am 26.3 23.3 12.0 41 8.2 SW 19 28 10 15 1015.7 1015.7 0.0
19/09:00am 25.1 21.8 12.7 46 7.2 SSW 22 30 12 16 1015.8 1015.8 0.0
19/08:30am 24.4 20.8 13.0 49 6.6 SSW 24 32 13 17 1015.8 1015.8 0.0
19/08:00am 23.9 21.4 14.0 54 5.8 SSW 20 28 11 15 1015.8 1015.8 0.0
19/07:30am 22.7 20.3 14.5 60 4.8 SSW 20 28 11 15 1015.6 1015.6 0.0
19/07:00am 21.6 20.1 15.2 67 3.8 SSW 17 22 9 12 1015.4 1015.4 0.0
19/06:30am 20.4 20.7 15.0 71 3.2 SSW 7 11 4 6 1015.0 1015.0 0.0
19/06:00am 19.2 19.1 14.0 72 3.0 SSW 7 7 4 4 1014.6 1014.6 0.0
19/05:30am 19.9 19.6 14.3 70 3.2 SSW 9 13 5 7 1014.1 1014.1 0.0
19/05:00am 20.3 19.6 14.2 68 3.5 SSW 11 15 6 8 1013.8 1013.8 0.0
19/04:30am 20.7 19.6 14.4 67 3.7 SW 13 15 7 8 1013.6 1013.6 0.0
19/04:00am 21.3 20.0 14.9 67 3.8 SW 15 20 8 11 1013.4 1013.4 0.0
19/03:30am 21.5 20.3 15.1 67 3.8 SW 15 22 8 12 1013.2 1013.2 0.0
19/03:00am 21.9 21.2 15.3 66 3.9 SW 13 19 7 10 1012.9 1012.9 0.0
19/02:30am 22.2 21.5 15.3 65 4.1 SW 13 19 7 10 1013.0 1013.0 0.0
19/02:00am 22.5 20.7 15.6 65 4.1 SW 19 26 10 14 1013.1 1013.1 0.0
19/01:30am 22.6 20.8 15.4 64 4.3 SW 19 26 10 14 1013.2 1013.2 0.0
19/01:00am 23.0 21.4 16.1 65 4.2 WSW 19 26 10 14 1013.4 1013.4 0.0
19/12:30am 23.0 23.0 17.2 70 3.6 WSW 13 19 7 10 1013.5 1013.5 0.0
19/12:00am 23.3 22.7 17.5 70 3.6 WSW 17 22 9 12 1013.8 1013.8 0.0
 
Date/Time
WST
Temp
°C
App
Temp
°C
Dew
Point
Rel
Hum
%
Delta-T
°C
Wind Press
QNH
hPa
Press
MSL
hPa
Rain
since 9 am
mm
Dir
 
Spd
km/h
Gust
km/h
Spd
kts
Gust
kts
18/11:30pm 23.4 22.7 17.4 69 3.7 W 17 22 9 12 1013.9 1013.9 0.0
18/11:00pm 23.4 22.3 17.4 69 3.7 W 19 28 10 15 1014.1 1014.1 0.0
18/10:30pm 23.4 23.1 17.4 69 3.7 W 15 20 8 11 1014.2 1014.2 0.0
18/10:00pm 23.6 22.4 17.1 67 4.0 W 19 26 10 14 1014.1 1014.1 0.0
18/09:30pm 23.7 22.5 16.2 63 4.6 W 17 24 9 13 1014.1 1014.1 0.0

Other Formats:

Comma delimited format used in spreadsheet applications
http://www.bom.gov.au/fwo/IDW60801/IDW60801.94306.axf

JavaScript Object Notation format (JSON) in row-major order
http://www.bom.gov.au/fwo/IDW60801/IDW60801.94306.json